Time;durP1;ratioP1;P1;durP2;ratioP2;P2;SDS_P1;SDS_P2;PMS_P1;PMS_P2;Temp;Humidity;BMP_temperature;BMP_pressure;BME280_temperature;BME280_humidity;BME280_pressure;Samples;Min_cycle;Max_cycle;Signal;HPM_P1;HPM_P2
2023/10/23 00:01:59;;;;;;;0.40;0.40;;;11.50;99.90;;;;;;4407080;32;20069;-62
2023/10/23 00:04:24;;;;;;;0.30;0.30;;;11.50;99.90;;;;;;4392640;32;20081;-62
2023/10/23 00:06:50;;;;;;;0.30;0.30;;;11.40;99.90;;;;;;4407253;32;20107;-62
2023/10/23 00:09:15;;;;;;;0.28;0.28;;;11.30;99.90;;;;;;4404921;32;20053;-62
2023/10/23 00:11:41;;;;;;;0.30;0.30;;;11.30;99.90;;;;;;4407436;32;20089;-62
2023/10/23 00:14:06;;;;;;;0.40;0.40;;;11.30;99.90;;;;;;4407470;32;20290;-62
2023/10/23 00:16:32;;;;;;;0.50;0.50;;;11.30;99.90;;;;;;4403077;32;20122;-61
2023/10/23 00:18:57;;;;;;;1.42;0.75;;;11.30;99.90;;;;;;4403594;32;20386;-62
2023/10/23 00:21:22;;;;;;;0.35;0.35;;;11.40;99.90;;;;;;4405454;32;20089;-62
2023/10/23 00:23:49;;;;;;;0.80;0.80;;;11.30;99.90;;;;;;4406791;32;20090;-62
2023/10/23 00:26:15;;;;;;;0.40;0.40;;;11.30;99.90;;;;;;4406994;32;20228;-62
2023/10/23 00:28:41;;;;;;;0.30;0.30;;;11.30;99.90;;;;;;4404749;32;20125;-62
2023/10/23 00:31:06;;;;;;;0.30;0.30;;;11.40;99.90;;;;;;4407252;32;20057;-62
2023/10/23 00:33:32;;;;;;;0.30;0.30;;;11.30;99.90;;;;;;4408268;32;20147;-62
2023/10/23 00:35:57;;;;;;;0.35;0.35;;;11.20;99.90;;;;;;4404127;32;20150;-59
2023/10/23 00:38:22;;;;;;;0.30;0.30;;;11.10;99.90;;;;;;4401156;32;20089;-62
2023/10/23 00:40:48;;;;;;;0.30;0.30;;;11.10;99.90;;;;;;4408928;32;20080;-61
2023/10/23 00:43:22;;;;;;;0.73;0.60;;;11.10;99.90;;;;;;4411511;32;20422;-61
2023/10/23 00:45:52;;;;;;;0.40;0.40;;;11.10;99.90;;;;;;4406747;32;20086;-62
2023/10/23 00:48:20;;;;;;;0.30;0.30;;;11.10;99.90;;;;;;4402415;32;20585;-62
2023/10/23 00:50:50;;;;;;;0.40;0.40;;;11.10;99.90;;;;;;4397205;32;20090;-62
2023/10/23 00:53:18;;;;;;;0.40;0.40;;;11.10;99.90;;;;;;4408361;32;20583;-62
2023/10/23 00:55:46;;;;;;;0.28;0.28;;;11.00;99.90;;;;;;4407005;32;20158;-62
2023/10/23 00:58:13;;;;;;;0.30;0.30;;;11.00;99.90;;;;;;4398960;32;20077;-62
2023/10/23 01:00:39;;;;;;;0.47;0.43;;;11.00;99.90;;;;;;4406469;32;20657;-62
2023/10/23 01:03:06;;;;;;;0.62;0.40;;;11.00;99.90;;;;;;4408563;32;20572;-62
2023/10/23 01:05:31;;;;;;;0.32;0.32;;;11.00;99.90;;;;;;4405927;32;20172;-59
2023/10/23 01:07:57;;;;;;;0.20;0.20;;;11.00;99.90;;;;;;4405543;32;20578;-62
2023/10/23 01:10:22;;;;;;;0.30;0.30;;;10.80;99.90;;;;;;4407214;32;20089;-62
2023/10/23 01:12:48;;;;;;;0.50;0.50;;;10.80;99.90;;;;;;4411401;32;20164;-62
2023/10/23 01:15:13;;;;;;;0.30;0.30;;;10.80;99.90;;;;;;4408540;32;20061;-62
2023/10/23 01:17:39;;;;;;;0.30;0.30;;;10.80;99.90;;;;;;4400295;32;20453;-62
2023/10/23 01:20:08;;;;;;;2.17;1.05;;;10.80;99.90;;;;;;4403542;32;20089;-61
2023/10/23 01:22:34;;;;;;;0.65;0.35;;;10.80;99.90;;;;;;4407939;32;20078;-62
2023/10/23 01:25:00;;;;;;;0.37;0.37;;;10.70;99.90;;;;;;4406924;32;20058;-62
2023/10/23 01:27:26;;;;;;;0.30;0.30;;;10.60;99.90;;;;;;4405850;32;20062;-61
2023/10/23 01:29:51;;;;;;;0.30;0.30;;;10.60;99.90;;;;;;4408369;32;20580;-61
2023/10/23 01:32:17;;;;;;;0.28;0.28;;;10.60;99.90;;;;;;4407406;32;20066;-62
2023/10/23 01:34:42;;;;;;;0.40;0.40;;;10.60;99.90;;;;;;4404786;32;20050;-62
2023/10/23 01:37:08;;;;;;;0.30;0.30;;;10.60;99.90;;;;;;4397454;32;20148;-62
2023/10/23 01:39:33;;;;;;;0.20;0.20;;;10.50;99.90;;;;;;4404430;32;20132;-62
2023/10/23 01:41:58;;;;;;;1.58;0.98;;;10.40;99.90;;;;;;4406287;32;20069;-61
2023/10/23 01:44:24;;;;;;;1.60;1.00;;;10.40;99.90;;;;;;4411327;32;20069;-62
2023/10/23 01:46:49;;;;;;;2.05;0.90;;;10.30;99.90;;;;;;4404725;32;20920;-62
2023/10/23 01:49:15;;;;;;;0.30;0.30;;;10.40;99.90;;;;;;4405027;32;20074;-61
2023/10/23 01:51:40;;;;;;;0.30;0.30;;;10.50;99.90;;;;;;4406572;32;20062;-61
2023/10/23 01:54:06;;;;;;;0.20;0.20;;;10.50;99.90;;;;;;4408828;32;20081;-62
2023/10/23 01:56:31;;;;;;;0.30;0.30;;;10.60;99.90;;;;;;4401808;32;20089;-62
2023/10/23 01:58:57;;;;;;;49.97;0.80;;;10.60;99.90;;;;;;4401247;32;20160;-61
2023/10/23 02:01:23;;;;;;;0.30;0.30;;;10.50;99.90;;;;;;4407377;32;20094;-61
2023/10/23 02:03:50;;;;;;;0.82;0.70;;;10.50;99.90;;;;;;4387748;32;20441;-62
2023/10/23 02:06:16;;;;;;;5.97;1.90;;;10.50;99.90;;;;;;4391426;32;20074;-61
2023/10/23 02:08:41;;;;;;;0.28;0.28;;;10.60;99.90;;;;;;4405787;32;20592;-61
2023/10/23 02:11:08;;;;;;;0.30;0.30;;;10.70;99.90;;;;;;4406399;32;20089;-62
2023/10/23 02:13:34;;;;;;;0.28;0.28;;;10.70;99.90;;;;;;4407149;32;21224;-61
2023/10/23 02:15:59;;;;;;;0.30;0.30;;;10.80;99.90;;;;;;4407628;32;20069;-62
2023/10/23 02:18:25;;;;;;;0.80;0.50;;;10.70;99.90;;;;;;4401303;32;20419;-61
2023/10/23 02:20:50;;;;;;;1.55;0.50;;;10.70;99.90;;;;;;4409525;32;20130;-62
2023/10/23 02:23:16;;;;;;;0.60;0.50;;;10.60;99.90;;;;;;4408458;32;20065;-61
2023/10/23 02:25:41;;;;;;;0.20;0.20;;;10.60;99.90;;;;;;4405055;32;20140;-61
2023/10/23 02:28:07;;;;;;;0.30;0.30;;;10.60;99.90;;;;;;4388623;32;21965;-61
2023/10/23 02:30:34;;;;;;;0.80;0.30;;;10.60;99.90;;;;;;4408376;32;20078;-61
2023/10/23 02:33:00;;;;;;;0.32;0.32;;;10.50;99.90;;;;;;4408099;32;20128;-61
2023/10/23 02:35:25;;;;;;;0.30;0.30;;;10.40;99.90;;;;;;4408185;32;20077;-61
2023/10/23 02:37:51;;;;;;;0.50;0.50;;;10.40;99.90;;;;;;4397336;32;20070;-60
2023/10/23 02:40:16;;;;;;;5.40;2.30;;;10.40;99.90;;;;;;4406232;32;20066;-61
2023/10/23 02:42:42;;;;;;;0.30;0.30;;;10.40;99.90;;;;;;4407782;32;20159;-59
2023/10/23 02:45:08;;;;;;;0.65;0.65;;;10.50;99.90;;;;;;4407176;32;20133;-61
2023/10/23 02:47:33;;;;;;;0.32;0.32;;;10.40;99.90;;;;;;4406187;32;20122;-61
2023/10/23 02:49:59;;;;;;;1.20;0.45;;;10.40;99.90;;;;;;4406852;32;20197;-61
2023/10/23 02:52:25;;;;;;;0.30;0.30;;;10.50;99.90;;;;;;4406535;32;20081;-61
2023/10/23 02:54:51;;;;;;;0.30;0.30;;;10.40;99.90;;;;;;4408545;32;20085;-61
2023/10/23 02:57:16;;;;;;;0.30;0.30;;;10.30;99.90;;;;;;4401066;32;21158;-61
2023/10/23 02:59:46;;;;;;;0.43;0.43;;;10.20;99.90;;;;;;4405485;32;20077;-61
2023/10/23 03:02:13;;;;;;;5.28;1.95;;;10.30;99.90;;;;;;4408324;32;20077;-61
2023/10/23 03:04:38;;;;;;;0.30;0.30;;;10.30;99.90;;;;;;4407172;32;20242;-61
2023/10/23 03:07:04;;;;;;;0.35;0.35;;;10.20;99.90;;;;;;4402602;32;20172;-61
2023/10/23 03:09:29;;;;;;;0.37;0.37;;;10.20;99.90;;;;;;4406864;32;20074;-62
2023/10/23 03:11:55;;;;;;;1.35;0.40;;;10.20;99.90;;;;;;4406918;32;20078;-61
2023/10/23 03:14:20;;;;;;;0.35;0.35;;;10.10;99.90;;;;;;4407376;32;20533;-61
2023/10/23 03:16:47;;;;;;;0.45;0.45;;;10.00;99.90;;;;;;4400623;32;20090;-62
2023/10/23 03:19:12;;;;;;;0.22;0.22;;;9.90;99.90;;;;;;4404593;32;20070;-62
2023/10/23 03:21:38;;;;;;;0.22;0.22;;;9.80;99.90;;;;;;4409556;32;20571;-61
2023/10/23 03:24:04;;;;;;;0.50;0.50;;;9.70;99.90;;;;;;4407976;32;20438;-61
2023/10/23 03:26:29;;;;;;;0.43;0.35;;;9.70;99.90;;;;;;4406506;32;20082;-61
2023/10/23 03:28:55;;;;;;;0.20;0.20;;;9.70;99.90;;;;;;4407373;32;20565;-61
2023/10/23 03:31:21;;;;;;;2.08;0.80;;;9.80;99.90;;;;;;4408496;32;20058;-62
2023/10/23 03:33:46;;;;;;;1.85;1.12;;;9.80;99.90;;;;;;4406031;32;20077;-61
2023/10/23 03:36:12;;;;;;;0.40;0.40;;;9.80;99.90;;;;;;4400396;32;20113;-62
2023/10/23 03:38:37;;;;;;;0.40;0.40;;;9.80;99.90;;;;;;4403086;32;20572;-61
2023/10/23 03:41:03;;;;;;;0.30;0.30;;;9.80;99.90;;;;;;4390432;32;20078;-60
2023/10/23 03:43:28;;;;;;;0.20;0.20;;;9.80;99.90;;;;;;4408892;32;20068;-61
2023/10/23 03:45:54;;;;;;;0.52;0.52;;;9.80;99.90;;;;;;4392514;32;20086;-61
2023/10/23 03:48:20;;;;;;;0.45;0.45;;;9.80;99.90;;;;;;4403430;32;20197;-62
2023/10/23 03:50:45;;;;;;;0.82;0.65;;;9.70;99.90;;;;;;4406290;32;20525;-62
2023/10/23 03:53:11;;;;;;;0.40;0.40;;;9.70;99.90;;;;;;4410055;32;20082;-61
2023/10/23 03:55:37;;;;;;;0.50;0.50;;;9.70;99.90;;;;;;4407204;32;20093;-59
2023/10/23 03:58:03;;;;;;;0.30;0.30;;;9.70;99.90;;;;;;4384619;32;21897;-62
2023/10/23 04:00:29;;;;;;;0.60;0.60;;;9.70;99.90;;;;;;4407869;32;20058;-61
2023/10/23 04:02:55;;;;;;;1.87;0.40;;;9.70;99.90;;;;;;4406553;32;20184;-61
2023/10/23 04:05:20;;;;;;;0.30;0.30;;;9.60;99.90;;;;;;4403274;32;20470;-60
2023/10/23 04:07:46;;;;;;;0.40;0.40;;;9.60;99.90;;;;;;4391091;32;20111;-61
2023/10/23 04:10:13;;;;;;;0.30;0.30;;;9.60;99.90;;;;;;4402462;32;20089;-60
2023/10/23 04:12:39;;;;;;;0.35;0.35;;;9.70;99.90;;;;;;4403662;32;20133;-61
2023/10/23 04:15:05;;;;;;;0.30;0.30;;;9.60;99.90;;;;;;4399015;32;20074;-61
2023/10/23 04:17:31;;;;;;;1.65;0.60;;;9.60;99.90;;;;;;4402391;32;20074;-61
2023/10/23 04:19:56;;;;;;;3.70;1.55;;;9.60;99.90;;;;;;4404127;32;20101;-62
2023/10/23 04:22:22;;;;;;;1.55;1.05;;;9.60;99.90;;;;;;4408823;32;20069;-61
2023/10/23 04:24:48;;;;;;;0.80;0.80;;;9.60;99.90;;;;;;4406860;32;20509;-62
2023/10/23 04:27:14;;;;;;;0.40;0.40;;;9.50;99.90;;;;;;4405954;32;20086;-62
2023/10/23 04:29:39;;;;;;;0.50;0.50;;;9.50;99.90;;;;;;4406270;32;20398;-61
2023/10/23 04:32:05;;;;;;;0.30;0.30;;;9.60;99.90;;;;;;4407815;32;20192;-61
2023/10/23 04:34:30;;;;;;;1.25;1.05;;;9.60;99.90;;;;;;4399379;32;20093;-61
2023/10/23 04:36:56;;;;;;;0.30;0.30;;;9.50;99.90;;;;;;4401075;32;20094;-62
2023/10/23 04:39:21;;;;;;;0.28;0.28;;;9.60;99.90;;;;;;4403610;32;20137;-61
2023/10/23 04:41:46;;;;;;;2.28;0.62;;;9.60;99.90;;;;;;4406248;32;20509;-62
2023/10/23 04:44:12;;;;;;;0.40;0.40;;;9.60;99.90;;;;;;4403128;32;20121;-61
2023/10/23 04:46:37;;;;;;;0.40;0.40;;;9.60;99.90;;;;;;4407242;32;20230;-62
2023/10/23 04:49:03;;;;;;;1.62;0.88;;;9.50;99.90;;;;;;4405310;32;20100;-62
2023/10/23 04:51:29;;;;;;;0.30;0.30;;;9.50;99.90;;;;;;4406720;32;20089;-61
2023/10/23 04:53:54;;;;;;;0.30;0.30;;;9.50;99.90;;;;;;4391677;32;20093;-61
2023/10/23 04:56:20;;;;;;;0.30;0.30;;;9.40;99.90;;;;;;4387159;32;20812;-61
2023/10/23 04:58:45;;;;;;;0.30;0.30;;;9.40;99.90;;;;;;4400838;32;20494;-62
2023/10/23 05:01:18;;;;;;;0.40;0.40;;;9.40;99.90;;;;;;4406939;32;20127;-61
2023/10/23 05:03:44;;;;;;;0.50;0.50;;;9.40;99.90;;;;;;4404379;32;20062;-62
2023/10/23 05:06:09;;;;;;;0.30;0.30;;;9.40;99.90;;;;;;4407445;32;20086;-62
2023/10/23 05:08:35;;;;;;;1.65;0.60;;;9.40;99.90;;;;;;4402048;32;21379;-61
2023/10/23 05:11:08;;;;;;;0.50;0.50;;;9.40;99.90;;;;;;4404131;32;20101;-62
2023/10/23 05:13:34;;;;;;;0.30;0.30;;;9.20;99.90;;;;;;4407269;32;20173;-63
2023/10/23 05:16:04;;;;;;;0.40;0.40;;;9.20;99.90;;;;;;4406417;32;20116;-58
2023/10/23 05:18:30;;;;;;;0.45;0.45;;;9.30;99.90;;;;;;4400345;32;20513;-61
2023/10/23 05:20:56;;;;;;;0.37;0.37;;;9.30;99.90;;;;;;4407597;32;20110;-62
2023/10/23 05:23:21;;;;;;;1.45;0.50;;;9.30;99.90;;;;;;4406699;32;20061;-61
2023/10/23 05:25:47;;;;;;;0.30;0.30;;;9.30;99.90;;;;;;4406906;32;20719;-62
2023/10/23 05:28:13;;;;;;;0.62;0.60;;;9.30;99.90;;;;;;4400411;32;20070;-61
2023/10/23 05:30:38;;;;;;;8.68;0.50;;;9.30;99.90;;;;;;4406444;32;20173;-62
2023/10/23 05:33:03;;;;;;;0.65;0.60;;;9.30;99.90;;;;;;4406875;32;20061;-61
2023/10/23 05:35:29;;;;;;;0.30;0.30;;;9.30;99.90;;;;;;4385099;32;20106;-60
2023/10/23 05:37:54;;;;;;;0.40;0.40;;;9.20;99.90;;;;;;4400725;32;20087;-61
2023/10/23 05:40:20;;;;;;;0.45;0.45;;;9.10;99.90;;;;;;4408605;32;20147;-60
2023/10/23 05:42:45;;;;;;;0.20;0.20;;;9.10;99.90;;;;;;4405442;32;20061;-60
2023/10/23 05:45:11;;;;;;;0.20;0.20;;;9.20;99.90;;;;;;4406778;32;20125;-59
2023/10/23 05:47:37;;;;;;;0.20;0.20;;;9.20;99.90;;;;;;4405989;32;20120;-60
2023/10/23 05:50:04;;;;;;;0.50;0.50;;;9.30;99.90;;;;;;4394132;32;20431;-61
2023/10/23 05:52:30;;;;;;;0.40;0.40;;;9.30;99.90;;;;;;4410422;32;20069;-61
2023/10/23 05:54:55;;;;;;;0.20;0.20;;;9.40;99.90;;;;;;4408158;32;20469;-61
2023/10/23 05:57:21;;;;;;;0.37;0.37;;;9.40;99.90;;;;;;4401425;32;20057;-60
2023/10/23 05:59:46;;;;;;;0.60;0.60;;;9.40;99.90;;;;;;4405970;32;20176;-58
2023/10/23 06:02:12;;;;;;;0.47;0.47;;;9.50;99.90;;;;;;4406160;32;20054;-60
2023/10/23 06:04:37;;;;;;;0.35;0.35;;;9.50;99.90;;;;;;4407289;32;20062;-60
2023/10/23 06:07:03;;;;;;;0.45;0.45;;;9.50;99.90;;;;;;4404970;32;20370;-61
2023/10/23 06:09:28;;;;;;;0.40;0.40;;;9.50;99.90;;;;;;4406903;32;20061;-61
2023/10/23 06:11:54;;;;;;;0.30;0.30;;;9.50;99.90;;;;;;4407179;32;20116;-61
2023/10/23 06:14:19;;;;;;;0.60;0.60;;;9.40;99.90;;;;;;4406560;32;20412;-58
2023/10/23 06:16:45;;;;;;;0.68;0.60;;;9.40;99.90;;;;;;4406145;32;20340;-60
2023/10/23 06:19:10;;;;;;;0.30;0.30;;;9.40;99.90;;;;;;4405703;32;20394;-60
2023/10/23 06:21:36;;;;;;;0.62;0.62;;;9.40;99.90;;;;;;4407892;32;20086;-61
2023/10/23 06:24:02;;;;;;;1.65;1.17;;;9.40;99.90;;;;;;4410897;32;20061;-60
2023/10/23 06:26:29;;;;;;;0.52;0.52;;;9.50;99.90;;;;;;4407625;32;20081;-60
2023/10/23 06:28:55;;;;;;;0.52;0.52;;;9.50;99.90;;;;;;4406984;32;20949;-61
2023/10/23 06:31:21;;;;;;;1.60;0.98;;;9.50;99.90;;;;;;4409096;32;20106;-60
2023/10/23 06:33:47;;;;;;;0.30;0.30;;;9.50;99.90;;;;;;4405883;32;20085;-61
2023/10/23 06:36:12;;;;;;;0.47;0.47;;;9.50;99.90;;;;;;4400020;32;20821;-62
2023/10/23 06:38:38;;;;;;;3.28;0.90;;;9.60;99.90;;;;;;4401362;32;20085;-60
2023/10/23 06:41:04;;;;;;;0.40;0.40;;;9.70;99.90;;;;;;4406977;32;20144;-60
2023/10/23 06:43:31;;;;;;;0.35;0.35;;;9.80;99.90;;;;;;4408081;32;20085;-61
2023/10/23 06:45:56;;;;;;;1.05;0.60;;;9.80;99.90;;;;;;4404566;32;21107;-60
2023/10/23 06:48:21;;;;;;;0.82;0.45;;;9.80;99.90;;;;;;4403147;32;20094;-61
2023/10/23 06:50:47;;;;;;;3.87;1.42;;;9.80;99.90;;;;;;4405317;32;20058;-59
2023/10/23 06:53:14;;;;;;;0.65;0.65;;;9.80;99.90;;;;;;4405548;32;20078;-62
2023/10/23 06:55:55;;;;;;;0.20;0.20;;;9.80;99.90;;;;;;4403634;32;20094;-61
2023/10/23 06:58:21;;;;;;;;;;;9.80;99.90;;;;;;4402613;32;20090;-61
2023/10/23 07:00:47;;;;;;;0.30;0.30;;;9.80;99.90;;;;;;4406903;32;20539;-60
2023/10/23 07:03:13;;;;;;;4.03;0.80;;;9.80;99.90;;;;;;4394411;32;20117;-61
2023/10/23 07:05:40;;;;;;;0.40;0.40;;;9.90;99.90;;;;;;4391649;32;20070;-60
2023/10/23 07:08:06;;;;;;;0.40;0.40;;;10.00;99.90;;;;;;4404100;32;20585;-61
2023/10/23 07:10:35;;;;;;;0.52;0.43;;;10.00;99.90;;;;;;4404926;32;20127;-59
2023/10/23 07:13:02;;;;;;;0.60;0.60;;;9.90;99.90;;;;;;4405148;32;20058;-61
2023/10/23 07:15:28;;;;;;;0.30;0.30;;;9.90;99.90;;;;;;4403111;32;20128;-61
2023/10/23 07:17:53;;;;;;;0.50;0.50;;;10.00;99.90;;;;;;4401139;32;20530;-60
2023/10/23 07:20:19;;;;;;;0.25;0.25;;;10.10;99.90;;;;;;4407832;32;20078;-60
2023/10/23 07:22:44;;;;;;;2.20;1.15;;;10.20;99.90;;;;;;4409547;32;20407;-60
2023/10/23 07:25:11;;;;;;;1.20;0.70;;;10.20;99.90;;;;;;4407765;32;20561;-60
2023/10/23 07:27:36;;;;;;;1.17;1.08;;;10.20;99.90;;;;;;4404745;32;20058;-61
2023/10/23 07:30:04;;;;;;;0.30;0.30;;;10.30;99.90;;;;;;4405327;32;20082;-61
2023/10/23 07:32:29;;;;;;;0.40;0.40;;;10.30;99.90;;;;;;4406974;32;20058;-61
2023/10/23 07:34:55;;;;;;;1.12;0.82;;;10.40;99.90;;;;;;4405139;32;20601;-60
2023/10/23 07:37:21;;;;;;;1.00;0.50;;;10.50;99.90;;;;;;4395698;32;20201;-59
2023/10/23 07:39:47;;;;;;;0.30;0.30;;;10.50;99.90;;;;;;4392521;32;20110;-61
2023/10/23 07:42:14;;;;;;;0.47;0.47;;;10.60;99.90;;;;;;4407721;32;20156;-62
2023/10/23 07:44:40;;;;;;;0.40;0.40;;;10.70;99.90;;;;;;4406236;32;20101;-62
2023/10/23 07:47:05;;;;;;;0.40;0.40;;;10.70;99.90;;;;;;4405853;32;20047;-61
2023/10/23 07:49:31;;;;;;;23.67;0.85;;;10.80;99.90;;;;;;4406411;32;20069;-61
2023/10/23 07:51:56;;;;;;;0.75;0.52;;;10.80;99.90;;;;;;4405078;32;20081;-61
2023/10/23 07:54:22;;;;;;;0.40;0.40;;;10.80;99.90;;;;;;4407310;32;20128;-62
2023/10/23 07:56:47;;;;;;;4.70;0.93;;;10.70;99.90;;;;;;4400751;32;20563;-61
2023/10/23 07:59:13;;;;;;;0.50;0.50;;;10.70;99.90;;;;;;4403827;32;20054;-61
2023/10/23 08:01:39;;;;;;;0.20;0.20;;;10.70;99.90;;;;;;4407567;32;20069;-62
2023/10/23 08:04:04;;;;;;;0.30;0.30;;;10.80;99.90;;;;;;4407238;32;20686;-61
2023/10/23 08:06:30;;;;;;;0.65;0.60;;;10.90;99.90;;;;;;4404060;32;20112;-62
2023/10/23 08:08:56;;;;;;;0.55;0.45;;;10.90;99.90;;;;;;4403519;32;20580;-61
2023/10/23 08:11:22;;;;;;;4.85;1.50;;;10.90;99.90;;;;;;4406035;32;20057;-61
2023/10/23 08:13:47;;;;;;;0.50;0.50;;;10.90;99.90;;;;;;4408132;32;20612;-62
2023/10/23 08:16:13;;;;;;;0.45;0.45;;;11.00;99.90;;;;;;4404417;32;20086;-61
2023/10/23 08:18:39;;;;;;;0.52;0.52;;;11.10;99.90;;;;;;4403108;32;20416;-61
2023/10/23 08:21:14;;;;;;;0.30;0.30;;;11.20;99.90;;;;;;4392428;32;20086;-61
2023/10/23 08:23:41;;;;;;;0.40;0.40;;;11.20;99.90;;;;;;4407045;32;20087;-61
2023/10/23 08:26:06;;;;;;;0.50;0.50;;;11.30;99.90;;;;;;4405287;32;20095;-61
2023/10/23 08:28:32;;;;;;;0.52;0.52;;;11.30;99.90;;;;;;4395789;32;20057;-61
2023/10/23 08:30:57;;;;;;;0.52;0.52;;;11.30;99.90;;;;;;4407150;32;20069;-61
2023/10/23 08:33:23;;;;;;;0.37;0.37;;;11.40;99.90;;;;;;4405769;32;20170;-60
2023/10/23 08:35:48;;;;;;;0.60;0.60;;;11.40;99.90;;;;;;4402854;32;20542;-62
2023/10/23 08:38:14;;;;;;;0.22;0.22;;;11.40;99.90;;;;;;4397676;32;20131;-61
2023/10/23 08:40:40;;;;;;;0.30;0.30;;;11.50;99.90;;;;;;4403160;32;20085;-61
2023/10/23 08:43:05;;;;;;;0.65;0.65;;;11.50;99.90;;;;;;4408478;32;20062;-61
2023/10/23 08:45:31;;;;;;;0.30;0.30;;;11.60;99.90;;;;;;4405674;32;20554;-61
2023/10/23 08:47:57;;;;;;;0.60;0.60;;;11.60;99.90;;;;;;4403195;32;20415;-59
2023/10/23 08:50:24;;;;;;;0.90;0.47;;;11.60;99.90;;;;;;4397539;32;20155;-61
2023/10/23 08:52:57;;;;;;;0.50;0.50;;;11.70;99.90;;;;;;4405426;32;20090;-61
2023/10/23 08:55:26;;;;;;;0.37;0.37;;;11.70;99.90;;;;;;4394178;32;20069;-61
2023/10/23 08:57:53;;;;;;;0.95;0.60;;;11.80;99.90;;;;;;4396399;32;20113;-61
2023/10/23 09:00:22;;;;;;;1.08;0.60;;;11.90;99.90;;;;;;4404650;32;20669;-61
2023/10/23 09:02:48;;;;;;;2.85;1.25;;;11.90;99.90;;;;;;4409327;32;20123;-62
2023/10/23 09:05:14;;;;;;;1.45;0.75;;;12.00;99.90;;;;;;4408146;32;20366;-62
2023/10/23 09:07:40;;;;;;;0.40;0.40;;;12.10;99.90;;;;;;4406867;32;20132;-61
2023/10/23 09:10:06;;;;;;;0.37;0.37;;;12.20;99.90;;;;;;4406899;32;20094;-62
2023/10/23 09:12:33;;;;;;;0.70;0.70;;;12.30;99.90;;;;;;4407451;32;20419;-61
2023/10/23 09:15:13;;;;;;;0.50;0.50;;;12.30;99.90;;;;;;4407864;32;20121;-61
2023/10/23 09:17:40;;;;;;;0.40;0.40;;;12.40;99.90;;;;;;4389007;32;20085;-60
2023/10/23 09:20:22;;;;;;;0.68;0.68;;;12.50;99.90;;;;;;4405968;32;20093;-60
2023/10/23 09:22:48;;;;;;;0.55;0.55;;;12.60;99.90;;;;;;4410770;32;20098;-61
2023/10/23 09:25:29;;;;;;;2.70;1.45;;;12.70;99.90;;;;;;4407532;32;20090;-60
2023/10/23 09:27:54;;;;;;;0.52;0.52;;;12.80;99.90;;;;;;4405927;32;20609;-60
2023/10/23 09:30:21;;;;;;;0.68;0.62;;;12.80;99.90;;;;;;4407537;32;20078;-62
2023/10/23 09:32:51;;;;;;;1.25;0.93;;;12.90;99.90;;;;;;4408976;32;20715;-61
2023/10/23 09:35:17;;;;;;;0.88;0.57;;;12.90;99.90;;;;;;4402637;32;20564;-61
2023/10/23 09:37:43;;;;;;;4.15;0.93;;;13.00;99.90;;;;;;4399720;32;20157;-61
2023/10/23 09:40:11;;;;;;;0.32;0.32;;;13.10;99.90;;;;;;4404855;32;20533;-61
2023/10/23 09:42:37;;;;;;;0.60;0.60;;;13.20;99.90;;;;;;4395845;32;20066;-61
2023/10/23 09:45:04;;;;;;;0.70;0.70;;;13.30;99.90;;;;;;4409881;32;20156;-61
2023/10/23 09:47:30;;;;;;;0.68;0.68;;;13.30;99.90;;;;;;4405475;32;20077;-61
2023/10/23 09:49:56;;;;;;;0.40;0.40;;;13.30;99.90;;;;;;4405510;32;20165;-61
2023/10/23 09:52:24;;;;;;;0.50;0.50;;;13.40;99.90;;;;;;4409599;32;20509;-62
2023/10/23 09:54:54;;;;;;;1.27;0.85;;;13.50;99.90;;;;;;4403596;32;20143;-62
2023/10/23 09:57:25;;;;;;;0.30;0.30;;;13.50;99.90;;;;;;4401545;32;20108;-61
2023/10/23 09:59:59;;;;;;;0.40;0.40;;;13.50;99.90;;;;;;4408370;32;20091;-61
2023/10/23 10:02:29;;;;;;;0.40;0.40;;;13.70;99.90;;;;;;4407824;32;20085;-62
2023/10/23 10:05:06;;;;;;;0.60;0.60;;;13.80;99.90;;;;;;4395413;32;20073;-62
2023/10/23 10:08:01;;;;;;;0.50;0.50;;;14.00;99.90;;;;;;4405946;32;20569;-63
2023/10/23 10:10:27;;;;;;;1.90;0.90;;;14.30;99.90;;;;;;4405125;32;20084;-62
2023/10/23 10:12:55;;;;;;;0.40;0.40;;;14.40;99.90;;;;;;4403963;32;20095;-62
2023/10/23 10:15:22;;;;;;;0.85;0.60;;;14.50;99.90;;;;;;4390927;32;20069;-62
2023/10/23 10:17:49;;;;;;;0.40;0.40;;;14.60;99.90;;;;;;4398883;32;20073;-62
2023/10/23 10:20:16;;;;;;;0.50;0.50;;;14.60;99.90;;;;;;4406232;32;20073;-62
2023/10/23 10:22:42;;;;;;;3.53;0.50;;;14.70;99.90;;;;;;4394939;32;20062;-62
2023/10/23 10:25:09;;;;;;;0.30;0.30;;;14.90;99.90;;;;;;4409166;32;20085;-61
2023/10/23 10:27:35;;;;;;;0.30;0.30;;;14.90;99.90;;;;;;4408330;32;20069;-62
2023/10/23 10:30:04;;;;;;;0.50;0.50;;;14.90;99.90;;;;;;4403792;32;20172;-62
2023/10/23 10:32:31;;;;;;;1.50;0.73;;;15.00;99.90;;;;;;4404457;32;20074;-62
2023/10/23 10:35:00;;;;;;;0.30;0.30;;;15.00;99.90;;;;;;4406893;32;20078;-62
2023/10/23 10:37:29;;;;;;;0.40;0.40;;;15.10;99.90;;;;;;4381573;32;20077;-61
2023/10/23 10:39:58;;;;;;;0.30;0.30;;;15.10;99.90;;;;;;4402772;32;20545;-62
2023/10/23 10:42:26;;;;;;;0.40;0.40;;;15.10;99.90;;;;;;4410333;32;20062;-61
2023/10/23 10:44:55;;;;;;;0.55;0.55;;;15.20;99.90;;;;;;4406879;32;20093;-62
2023/10/23 10:47:41;;;;;;;0.40;0.40;;;15.30;99.90;;;;;;4406856;32;20124;-62
2023/10/23 10:50:07;;;;;;;0.55;0.55;;;15.40;99.90;;;;;;4402858;32;20082;-62
2023/10/23 10:52:35;;;;;;;0.35;0.35;;;15.40;99.90;;;;;;4408911;32;20612;-63
2023/10/23 10:55:03;;;;;;;0.50;0.50;;;15.60;99.90;;;;;;4403659;32;20093;-62
2023/10/23 10:57:30;;;;;;;0.47;0.45;;;15.70;99.90;;;;;;4401913;32;20431;-60
2023/10/23 11:00:00;;;;;;;0.30;0.30;;;15.60;99.90;;;;;;4407998;32;20580;-62
2023/10/23 11:02:26;;;;;;;1.30;0.55;;;15.60;99.90;;;;;;4408713;32;20070;-62
2023/10/23 11:04:52;;;;;;;0.40;0.40;;;15.50;99.90;;;;;;4406508;32;20418;-63
2023/10/23 11:07:22;;;;;;;5.18;0.95;;;15.50;99.90;;;;;;4403859;32;20078;-62
2023/10/23 11:09:49;;;;;;;0.62;0.60;;;15.40;99.90;;;;;;4405990;32;20561;-62
2023/10/23 11:12:16;;;;;;;0.82;0.70;;;15.40;99.90;;;;;;4403970;32;20070;-62
2023/10/23 11:14:41;;;;;;;0.30;0.30;;;15.50;99.90;;;;;;4406789;32;20119;-62
2023/10/23 11:17:07;;;;;;;0.50;0.50;;;15.70;99.90;;;;;;4401413;32;20145;-62
2023/10/23 11:19:32;;;;;;;0.40;0.40;;;15.90;99.90;;;;;;4404287;32;20093;-62
2023/10/23 11:22:15;;;;;;;0.30;0.30;;;16.20;99.90;;;;;;4409897;32;20521;-63
2023/10/23 11:24:41;;;;;;;0.45;0.45;;;16.60;99.90;;;;;;4397279;32;20125;-62
2023/10/23 11:27:07;;;;;;;0.50;0.50;;;16.80;99.90;;;;;;4403956;32;20098;-62
2023/10/23 11:29:48;;;;;;;0.50;0.50;;;16.50;99.90;;;;;;4403627;32;20077;-62
2023/10/23 11:32:15;;;;;;;0.50;0.50;;;16.20;99.90;;;;;;4392589;32;20540;-62
2023/10/23 11:34:41;;;;;;;0.60;0.50;;;16.00;99.90;;;;;;4404983;32;20078;-62
2023/10/23 11:37:08;;;;;;;0.40;0.40;;;16.00;99.90;;;;;;4400937;32;20103;-61
2023/10/23 11:39:36;;;;;;;0.50;0.50;;;16.20;99.90;;;;;;4403187;32;20089;-62
2023/10/23 11:42:02;;;;;;;1.85;1.08;;;16.60;99.90;;;;;;4406143;32;20540;-61
2023/10/23 11:44:30;;;;;;;0.50;0.50;;;16.80;99.90;;;;;;4406391;32;20071;-62
2023/10/23 11:46:57;;;;;;;0.85;0.80;;;17.00;99.90;;;;;;4388470;32;20464;-63
2023/10/23 11:49:23;;;;;;;0.50;0.50;;;16.80;99.90;;;;;;4401008;32;81994;-62
2023/10/23 11:51:50;;;;;;;0.40;0.40;;;16.60;99.90;;;;;;4402601;32;20066;-62
2023/10/23 11:54:17;;;;;;;0.30;0.30;;;16.70;99.90;;;;;;4404713;32;20077;-62
2023/10/23 11:56:43;;;;;;;0.40;0.40;;;16.60;99.90;;;;;;4397994;32;20098;-62
2023/10/23 11:59:13;;;;;;;0.43;0.43;;;16.50;99.90;;;;;;4400292;32;20120;-61
2023/10/23 12:01:39;;;;;;;0.50;0.50;;;16.40;99.90;;;;;;4406642;32;20091;-62
2023/10/23 12:04:07;;;;;;;0.50;0.50;;;16.70;99.90;;;;;;4406816;32;20070;-62
2023/10/23 12:06:34;;;;;;;1.10;0.77;;;16.70;99.90;;;;;;4404855;32;20098;-63
2023/10/23 12:09:00;;;;;;;0.40;0.40;;;16.70;99.90;;;;;;4402467;32;20545;-63
2023/10/23 12:11:25;;;;;;;0.30;0.30;;;16.80;99.90;;;;;;4404596;32;20145;-63
2023/10/23 12:13:51;;;;;;;0.40;0.40;;;17.10;99.90;;;;;;4405804;32;20557;-62
2023/10/23 12:16:16;;;;;;;1.73;0.43;;;17.40;99.90;;;;;;4401219;32;21349;-62
2023/10/23 12:18:43;;;;;;;0.40;0.40;;;17.80;99.90;;;;;;4399387;32;20062;-63
2023/10/23 12:21:08;;;;;;;10.73;0.77;;;18.30;99.90;;;;;;4406347;32;20066;-63
2023/10/23 12:23:34;;;;;;;0.28;0.28;;;18.30;99.90;;;;;;4406685;32;20391;-63
2023/10/23 12:25:59;;;;;;;0.45;0.45;;;17.90;99.90;;;;;;4405745;32;20220;-61
2023/10/23 12:28:25;;;;;;;0.35;0.35;;;17.80;99.90;;;;;;4405336;32;20090;-62
2023/10/23 12:30:51;;;;;;;0.80;0.50;;;17.80;99.90;;;;;;4408386;32;20078;-61
2023/10/23 12:33:16;;;;;;;0.30;0.30;;;17.50;99.90;;;;;;4406004;32;20529;-61
2023/10/23 12:35:42;;;;;;;0.55;0.55;;;17.00;99.90;;;;;;4406227;32;20093;-62
2023/10/23 12:38:10;;;;;;;0.80;0.40;;;16.70;99.90;;;;;;4396538;32;20140;-62
2023/10/23 12:40:38;;;;;;;0.40;0.40;;;16.50;99.90;;;;;;4407530;32;20077;-61
2023/10/23 12:43:04;;;;;;;0.50;0.50;;;16.30;99.90;;;;;;4396256;32;20795;-62
2023/10/23 12:45:30;;;;;;;1.23;0.80;;;16.40;99.90;;;;;;4406360;32;20165;-61
2023/10/23 12:47:56;;;;;;;0.50;0.50;;;16.30;99.90;;;;;;4400291;32;20166;-62